sensor_id;sensor_type;location;lat;lon;timestamp;temperature;humidity
54168;DHT22;68429;50.958;3.592;2023-08-31T00:02:10;12.70;99.90
54168;DHT22;68429;50.958;3.592;2023-08-31T00:04:36;12.70;99.90
54168;DHT22;68429;50.958;3.592;2023-08-31T00:07:02;12.70;99.90
54168;DHT22;68429;50.958;3.592;2023-08-31T00:09:28;12.70;99.90
54168;DHT22;68429;50.958;3.592;2023-08-31T00:11:55;12.70;99.90
54168;DHT22;68429;50.958;3.592;2023-08-31T00:14:22;12.70;99.90
54168;DHT22;68429;50.958;3.592;2023-08-31T00:16:48;12.70;99.90
54168;DHT22;68429;50.958;3.592;2023-08-31T00:19:14;12.70;99.90
54168;DHT22;68429;50.958;3.592;2023-08-31T00:21:40;12.70;99.90
54168;DHT22;68429;50.958;3.592;2023-08-31T00:24:06;12.70;99.90
54168;DHT22;68429;50.958;3.592;2023-08-31T00:26:33;12.60;99.90
54168;DHT22;68429;50.958;3.592;2023-08-31T00:28:59;12.80;99.90
54168;DHT22;68429;50.958;3.592;2023-08-31T00:31:25;12.70;99.90
54168;DHT22;68429;50.958;3.592;2023-08-31T00:33:53;12.70;99.90
54168;DHT22;68429;50.958;3.592;2023-08-31T00:36:18;12.70;99.90
54168;DHT22;68429;50.958;3.592;2023-08-31T00:38:44;12.70;99.90
54168;DHT22;68429;50.958;3.592;2023-08-31T00:41:10;12.70;99.90
54168;DHT22;68429;50.958;3.592;2023-08-31T00:43:36;12.70;99.90
54168;DHT22;68429;50.958;3.592;2023-08-31T00:46:02;12.60;99.90
54168;DHT22;68429;50.958;3.592;2023-08-31T00:48:28;12.50;99.90
54168;DHT22;68429;50.958;3.592;2023-08-31T00:50:54;12.40;99.90
54168;DHT22;68429;50.958;3.592;2023-08-31T00:53:20;12.40;99.90
54168;DHT22;68429;50.958;3.592;2023-08-31T00:55:46;12.30;99.90
54168;DHT22;68429;50.958;3.592;2023-08-31T00:58:13;12.30;99.90
54168;DHT22;68429;50.958;3.592;2023-08-31T01:09:34;12.40;99.90
54168;DHT22;68429;50.958;3.592;2023-08-31T01:14:43;12.40;99.90
54168;DHT22;68429;50.958;3.592;2023-08-31T01:17:12;12.40;99.90
54168;DHT22;68429;50.958;3.592;2023-08-31T01:19:50;12.40;99.90
54168;DHT22;68429;50.958;3.592;2023-08-31T01:25:01;12.40;99.90
54168;DHT22;68429;50.958;3.592;2023-08-31T01:27:31;12.40;99.90
54168;DHT22;68429;50.958;3.592;2023-08-31T01:29:57;12.40;99.90
54168;DHT22;68429;50.958;3.592;2023-08-31T01:32:23;12.40;99.90
54168;DHT22;68429;50.958;3.592;2023-08-31T01:34:50;12.30;99.90
54168;DHT22;68429;50.958;3.592;2023-08-31T01:37:50;12.30;99.90
54168;DHT22;68429;50.958;3.592;2023-08-31T01:40:22;12.30;99.90
54168;DHT22;68429;50.958;3.592;2023-08-31T01:42:49;12.30;99.90
54168;DHT22;68429;50.958;3.592;2023-08-31T01:45:19;12.30;99.90
54168;DHT22;68429;50.958;3.592;2023-08-31T01:47:49;12.40;99.90
54168;DHT22;68429;50.958;3.592;2023-08-31T01:50:15;12.40;99.90
54168;DHT22;68429;50.958;3.592;2023-08-31T01:52:40;12.40;99.90
54168;DHT22;68429;50.958;3.592;2023-08-31T01:55:06;12.50;99.90
54168;DHT22;68429;50.958;3.592;2023-08-31T01:57:32;12.60;99.90
54168;DHT22;68429;50.958;3.592;2023-08-31T01:59:59;12.60;99.90
54168;DHT22;68429;50.958;3.592;2023-08-31T02:02:24;12.60;99.90
54168;DHT22;68429;50.958;3.592;2023-08-31T02:04:50;12.70;99.90
54168;DHT22;68429;50.958;3.592;2023-08-31T02:07:17;12.80;99.90
54168;DHT22;68429;50.958;3.592;2023-08-31T02:09:43;12.80;99.90
54168;DHT22;68429;50.958;3.592;2023-08-31T02:12:08;12.80;99.90
54168;DHT22;68429;50.958;3.592;2023-08-31T02:14:37;12.90;99.90
54168;DHT22;68429;50.958;3.592;2023-08-31T02:17:04;12.90;99.90
54168;DHT22;68429;50.958;3.592;2023-08-31T02:19:29;12.90;99.90
54168;DHT22;68429;50.958;3.592;2023-08-31T02:21:55;12.90;99.90
54168;DHT22;68429;50.958;3.592;2023-08-31T02:24:21;12.90;99.90
54168;DHT22;68429;50.958;3.592;2023-08-31T02:26:48;12.90;99.90
54168;DHT22;68429;50.958;3.592;2023-08-31T02:29:13;12.90;99.90
54168;DHT22;68429;50.958;3.592;2023-08-31T02:31:39;12.90;99.90
54168;DHT22;68429;50.958;3.592;2023-08-31T02:34:05;12.80;99.90
54168;DHT22;68429;50.958;3.592;2023-08-31T02:36:30;12.90;99.90
54168;DHT22;68429;50.958;3.592;2023-08-31T02:38:56;12.80;99.90
54168;DHT22;68429;50.958;3.592;2023-08-31T02:41:22;12.80;99.90
54168;DHT22;68429;50.958;3.592;2023-08-31T02:43:50;12.80;99.90
54168;DHT22;68429;50.958;3.592;2023-08-31T02:46:17;12.70;99.90
54168;DHT22;68429;50.958;3.592;2023-08-31T02:48:43;12.70;99.90
54168;DHT22;68429;50.958;3.592;2023-08-31T02:51:08;12.70;99.90
54168;DHT22;68429;50.958;3.592;2023-08-31T02:53:34;12.70;99.90
54168;DHT22;68429;50.958;3.592;2023-08-31T02:56:00;12.70;99.90
54168;DHT22;68429;50.958;3.592;2023-08-31T02:58:26;12.60;99.90
54168;DHT22;68429;50.958;3.592;2023-08-31T03:00:51;12.60;99.90
54168;DHT22;68429;50.958;3.592;2023-08-31T03:03:18;12.60;99.90
54168;DHT22;68429;50.958;3.592;2023-08-31T03:05:44;12.60;99.90
54168;DHT22;68429;50.958;3.592;2023-08-31T03:08:10;12.60;99.90
54168;DHT22;68429;50.958;3.592;2023-08-31T03:10:36;12.50;99.90
54168;DHT22;68429;50.958;3.592;2023-08-31T03:13:02;12.50;99.90
54168;DHT22;68429;50.958;3.592;2023-08-31T03:15:28;12.50;99.90
54168;DHT22;68429;50.958;3.592;2023-08-31T03:17:54;12.50;99.90
54168;DHT22;68429;50.958;3.592;2023-08-31T03:20:20;12.50;99.90
54168;DHT22;68429;50.958;3.592;2023-08-31T03:22:45;12.40;99.90
54168;DHT22;68429;50.958;3.592;2023-08-31T03:25:11;12.40;99.90
54168;DHT22;68429;50.958;3.592;2023-08-31T03:27:37;12.50;99.90
54168;DHT22;68429;50.958;3.592;2023-08-31T03:30:03;12.50;99.90
54168;DHT22;68429;50.958;3.592;2023-08-31T03:32:29;12.50;99.90
54168;DHT22;68429;50.958;3.592;2023-08-31T03:34:55;12.50;99.90
54168;DHT22;68429;50.958;3.592;2023-08-31T03:37:20;12.50;99.90
54168;DHT22;68429;50.958;3.592;2023-08-31T03:39:50;12.50;99.90
54168;DHT22;68429;50.958;3.592;2023-08-31T03:42:16;12.50;99.90
54168;DHT22;68429;50.958;3.592;2023-08-31T03:44:41;12.40;99.90
54168;DHT22;68429;50.958;3.592;2023-08-31T03:47:07;12.40;99.90
54168;DHT22;68429;50.958;3.592;2023-08-31T03:49:33;12.40;99.90
54168;DHT22;68429;50.958;3.592;2023-08-31T03:52:00;12.30;99.90
54168;DHT22;68429;50.958;3.592;2023-08-31T03:54:25;12.30;99.90
54168;DHT22;68429;50.958;3.592;2023-08-31T03:56:51;12.30;99.90
54168;DHT22;68429;50.958;3.592;2023-08-31T03:59:17;12.30;99.90
54168;DHT22;68429;50.958;3.592;2023-08-31T04:01:43;12.30;99.90
54168;DHT22;68429;50.958;3.592;2023-08-31T04:04:09;12.30;99.90
54168;DHT22;68429;50.958;3.592;2023-08-31T04:06:35;12.30;99.90
54168;DHT22;68429;50.958;3.592;2023-08-31T04:09:00;12.30;99.90
54168;DHT22;68429;50.958;3.592;2023-08-31T04:11:26;12.30;99.90
54168;DHT22;68429;50.958;3.592;2023-08-31T04:13:52;12.30;99.90
54168;DHT22;68429;50.958;3.592;2023-08-31T04:16:18;12.20;99.90
54168;DHT22;68429;50.958;3.592;2023-08-31T04:18:44;12.30;99.90
54168;DHT22;68429;50.958;3.592;2023-08-31T04:21:13;12.20;99.90
54168;DHT22;68429;50.958;3.592;2023-08-31T04:23:38;12.20;99.90
54168;DHT22;68429;50.958;3.592;2023-08-31T04:26:11;12.20;99.90
54168;DHT22;68429;50.958;3.592;2023-08-31T04:28:41;12.20;99.90
54168;DHT22;68429;50.958;3.592;2023-08-31T04:31:08;12.20;99.90
54168;DHT22;68429;50.958;3.592;2023-08-31T04:33:34;12.10;99.90
54168;DHT22;68429;50.958;3.592;2023-08-31T04:36:01;12.10;99.90
54168;DHT22;68429;50.958;3.592;2023-08-31T04:38:26;12.10;99.90
54168;DHT22;68429;50.958;3.592;2023-08-31T04:40:52;12.10;99.90
54168;DHT22;68429;50.958;3.592;2023-08-31T04:43:18;12.10;99.90
54168;DHT22;68429;50.958;3.592;2023-08-31T04:45:43;12.10;99.90
54168;DHT22;68429;50.958;3.592;2023-08-31T04:48:09;12.10;99.90
54168;DHT22;68429;50.958;3.592;2023-08-31T04:50:35;12.10;99.90
54168;DHT22;68429;50.958;3.592;2023-08-31T04:53:00;12.10;99.90
54168;DHT22;68429;50.958;3.592;2023-08-31T04:55:26;12.00;99.90
54168;DHT22;68429;50.958;3.592;2023-08-31T04:57:51;12.00;99.90
54168;DHT22;68429;50.958;3.592;2023-08-31T05:00:17;12.20;99.90
54168;DHT22;68429;50.958;3.592;2023-08-31T05:02:43;12.10;99.90
54168;DHT22;68429;50.958;3.592;2023-08-31T05:05:09;12.10;99.90
54168;DHT22;68429;50.958;3.592;2023-08-31T05:07:35;12.10;99.90
54168;DHT22;68429;50.958;3.592;2023-08-31T05:10:00;12.10;99.90
54168;DHT22;68429;50.958;3.592;2023-08-31T05:12:26;12.10;99.90
54168;DHT22;68429;50.958;3.592;2023-08-31T05:14:51;12.10;99.90
54168;DHT22;68429;50.958;3.592;2023-08-31T05:17:17;12.10;99.90
54168;DHT22;68429;50.958;3.592;2023-08-31T05:19:43;12.10;99.90
54168;DHT22;68429;50.958;3.592;2023-08-31T05:22:08;12.10;99.90
54168;DHT22;68429;50.958;3.592;2023-08-31T05:24:34;12.10;99.90
54168;DHT22;68429;50.958;3.592;2023-08-31T05:27:01;12.20;99.90
54168;DHT22;68429;50.958;3.592;2023-08-31T05:29:29;12.10;99.90
54168;DHT22;68429;50.958;3.592;2023-08-31T05:31:55;12.10;99.90
54168;DHT22;68429;50.958;3.592;2023-08-31T05:34:21;12.20;99.90
54168;DHT22;68429;50.958;3.592;2023-08-31T05:36:48;12.20;99.90
54168;DHT22;68429;50.958;3.592;2023-08-31T05:39:14;12.20;99.90
54168;DHT22;68429;50.958;3.592;2023-08-31T05:41:42;12.30;99.90
54168;DHT22;68429;50.958;3.592;2023-08-31T05:44:08;12.30;99.90
54168;DHT22;68429;50.958;3.592;2023-08-31T05:46:34;12.30;99.90
54168;DHT22;68429;50.958;3.592;2023-08-31T05:48:59;12.30;99.90
54168;DHT22;68429;50.958;3.592;2023-08-31T05:51:25;12.40;99.90
54168;DHT22;68429;50.958;3.592;2023-08-31T05:53:51;12.40;99.90
54168;DHT22;68429;50.958;3.592;2023-08-31T05:56:16;12.50;99.90
54168;DHT22;68429;50.958;3.592;2023-08-31T05:58:42;12.50;99.90
54168;DHT22;68429;50.958;3.592;2023-08-31T06:01:08;12.60;99.90
54168;DHT22;68429;50.958;3.592;2023-08-31T06:03:33;12.60;99.90
54168;DHT22;68429;50.958;3.592;2023-08-31T06:06:00;12.70;99.90
54168;DHT22;68429;50.958;3.592;2023-08-31T06:08:26;12.80;99.90
54168;DHT22;68429;50.958;3.592;2023-08-31T06:10:52;12.90;99.90
54168;DHT22;68429;50.958;3.592;2023-08-31T06:13:17;13.20;99.90
54168;DHT22;68429;50.958;3.592;2023-08-31T06:15:43;13.30;99.90
54168;DHT22;68429;50.958;3.592;2023-08-31T06:18:10;13.40;99.90
54168;DHT22;68429;50.958;3.592;2023-08-31T06:20:36;13.40;99.90
54168;DHT22;68429;50.958;3.592;2023-08-31T06:23:02;13.50;99.90
54168;DHT22;68429;50.958;3.592;2023-08-31T06:25:28;13.70;99.90
54168;DHT22;68429;50.958;3.592;2023-08-31T06:27:54;13.60;99.90
54168;DHT22;68429;50.958;3.592;2023-08-31T06:30:19;13.80;99.90
54168;DHT22;68429;50.958;3.592;2023-08-31T06:32:46;13.80;99.90
54168;DHT22;68429;50.958;3.592;2023-08-31T06:35:13;13.90;99.90
54168;DHT22;68429;50.958;3.592;2023-08-31T06:37:39;13.90;99.90
54168;DHT22;68429;50.958;3.592;2023-08-31T06:40:06;14.00;99.90
54168;DHT22;68429;50.958;3.592;2023-08-31T06:42:36;14.20;99.90
54168;DHT22;68429;50.958;3.592;2023-08-31T06:45:07;14.50;99.90
54168;DHT22;68429;50.958;3.592;2023-08-31T06:47:33;15.50;99.90
54168;DHT22;68429;50.958;3.592;2023-08-31T06:49:59;15.60;99.90
54168;DHT22;68429;50.958;3.592;2023-08-31T06:52:26;15.50;99.90
54168;DHT22;68429;50.958;3.592;2023-08-31T06:54:51;15.50;99.90
54168;DHT22;68429;50.958;3.592;2023-08-31T06:57:21;15.30;99.90
54168;DHT22;68429;50.958;3.592;2023-08-31T06:59:47;15.20;99.90
54168;DHT22;68429;50.958;3.592;2023-08-31T07:02:13;15.20;99.90
54168;DHT22;68429;50.958;3.592;2023-08-31T07:04:38;15.20;99.90
54168;DHT22;68429;50.958;3.592;2023-08-31T07:07:05;15.20;99.90
54168;DHT22;68429;50.958;3.592;2023-08-31T07:09:31;15.00;99.90
54168;DHT22;68429;50.958;3.592;2023-08-31T07:11:56;14.80;99.90
54168;DHT22;68429;50.958;3.592;2023-08-31T07:14:23;14.80;99.90
54168;DHT22;68429;50.958;3.592;2023-08-31T07:16:49;14.80;99.90
54168;DHT22;68429;50.958;3.592;2023-08-31T07:19:15;15.00;99.90
54168;DHT22;68429;50.958;3.592;2023-08-31T07:21:41;15.00;99.90
54168;DHT22;68429;50.958;3.592;2023-08-31T07:24:07;14.90;99.90
54168;DHT22;68429;50.958;3.592;2023-08-31T07:26:33;14.90;99.90
54168;DHT22;68429;50.958;3.592;2023-08-31T07:29:00;15.00;99.90
54168;DHT22;68429;50.958;3.592;2023-08-31T07:31:27;15.10;99.90
54168;DHT22;68429;50.958;3.592;2023-08-31T07:33:52;15.10;99.90
54168;DHT22;68429;50.958;3.592;2023-08-31T07:36:18;15.10;99.90
54168;DHT22;68429;50.958;3.592;2023-08-31T07:38:44;15.00;99.90
54168;DHT22;68429;50.958;3.592;2023-08-31T07:41:09;15.10;99.90
54168;DHT22;68429;50.958;3.592;2023-08-31T07:43:35;15.10;99.90
54168;DHT22;68429;50.958;3.592;2023-08-31T07:46:00;15.10;99.90
54168;DHT22;68429;50.958;3.592;2023-08-31T07:48:26;15.20;99.90
54168;DHT22;68429;50.958;3.592;2023-08-31T07:50:52;15.10;99.90
54168;DHT22;68429;50.958;3.592;2023-08-31T07:53:17;15.30;99.90
54168;DHT22;68429;50.958;3.592;2023-08-31T07:55:54;15.50;99.90
54168;DHT22;68429;50.958;3.592;2023-08-31T07:58:20;15.80;99.90
54168;DHT22;68429;50.958;3.592;2023-08-31T08:00:46;15.90;99.90
54168;DHT22;68429;50.958;3.592;2023-08-31T08:03:12;15.80;99.90
54168;DHT22;68429;50.958;3.592;2023-08-31T08:05:39;15.80;99.90
54168;DHT22;68429;50.958;3.592;2023-08-31T08:08:05;16.00;99.90
54168;DHT22;68429;50.958;3.592;2023-08-31T08:10:31;16.10;99.90
54168;DHT22;68429;50.958;3.592;2023-08-31T08:12:56;16.20;99.90
54168;DHT22;68429;50.958;3.592;2023-08-31T08:15:22;16.30;99.90
54168;DHT22;68429;50.958;3.592;2023-08-31T08:17:48;16.40;99.90
54168;DHT22;68429;50.958;3.592;2023-08-31T08:20:13;16.30;99.90
54168;DHT22;68429;50.958;3.592;2023-08-31T08:22:39;16.40;99.90
54168;DHT22;68429;50.958;3.592;2023-08-31T08:25:05;16.70;99.90
54168;DHT22;68429;50.958;3.592;2023-08-31T08:27:31;17.00;99.90
54168;DHT22;68429;50.958;3.592;2023-08-31T08:29:59;16.90;99.90
54168;DHT22;68429;50.958;3.592;2023-08-31T08:32:24;17.00;99.90
54168;DHT22;68429;50.958;3.592;2023-08-31T08:34:50;16.90;99.90
54168;DHT22;68429;50.958;3.592;2023-08-31T08:37:16;17.00;99.90
54168;DHT22;68429;50.958;3.592;2023-08-31T08:39:42;16.90;99.90
54168;DHT22;68429;50.958;3.592;2023-08-31T08:42:10;16.90;99.90
54168;DHT22;68429;50.958;3.592;2023-08-31T08:44:36;17.00;99.90
54168;DHT22;68429;50.958;3.592;2023-08-31T08:47:02;16.90;99.90
54168;DHT22;68429;50.958;3.592;2023-08-31T08:49:30;17.10;99.90
54168;DHT22;68429;50.958;3.592;2023-08-31T08:51:58;17.40;99.90
54168;DHT22;68429;50.958;3.592;2023-08-31T08:54:24;17.60;99.90
54168;DHT22;68429;50.958;3.592;2023-08-31T08:56:50;17.50;99.90
54168;DHT22;68429;50.958;3.592;2023-08-31T08:59:16;17.70;99.90
54168;DHT22;68429;50.958;3.592;2023-08-31T09:01:42;17.70;99.90
54168;DHT22;68429;50.958;3.592;2023-08-31T09:04:09;17.80;99.90
54168;DHT22;68429;50.958;3.592;2023-08-31T09:06:35;17.70;99.90
54168;DHT22;68429;50.958;3.592;2023-08-31T09:09:01;17.90;99.90
54168;DHT22;68429;50.958;3.592;2023-08-31T09:11:26;18.20;99.90
54168;DHT22;68429;50.958;3.592;2023-08-31T09:13:52;17.90;99.90
54168;DHT22;68429;50.958;3.592;2023-08-31T09:16:29;18.00;99.90
54168;DHT22;68429;50.958;3.592;2023-08-31T09:18:56;17.80;99.90
54168;DHT22;68429;50.958;3.592;2023-08-31T09:21:22;18.10;99.90
54168;DHT22;68429;50.958;3.592;2023-08-31T09:23:56;18.10;99.90
54168;DHT22;68429;50.958;3.592;2023-08-31T09:26:23;18.10;99.90
54168;DHT22;68429;50.958;3.592;2023-08-31T09:28:49;18.20;99.90
54168;DHT22;68429;50.958;3.592;2023-08-31T09:31:15;18.30;99.90
54168;DHT22;68429;50.958;3.592;2023-08-31T09:33:49;18.40;99.90
54168;DHT22;68429;50.958;3.592;2023-08-31T09:36:16;18.30;99.90
54168;DHT22;68429;50.958;3.592;2023-08-31T09:38:42;18.20;99.90
54168;DHT22;68429;50.958;3.592;2023-08-31T09:41:11;18.40;99.90
54168;DHT22;68429;50.958;3.592;2023-08-31T09:43:37;18.50;99.90
54168;DHT22;68429;50.958;3.592;2023-08-31T09:46:04;18.80;99.90
54168;DHT22;68429;50.958;3.592;2023-08-31T09:48:30;19.40;99.90
54168;DHT22;68429;50.958;3.592;2023-08-31T09:50:56;19.70;99.90
54168;DHT22;68429;50.958;3.592;2023-08-31T09:53:29;19.80;99.90
54168;DHT22;68429;50.958;3.592;2023-08-31T09:55:54;19.90;99.90
54168;DHT22;68429;50.958;3.592;2023-08-31T09:58:21;19.80;99.90
54168;DHT22;68429;50.958;3.592;2023-08-31T10:00:49;20.00;99.90
54168;DHT22;68429;50.958;3.592;2023-08-31T10:03:16;19.90;99.90
54168;DHT22;68429;50.958;3.592;2023-08-31T10:05:48;19.70;99.90
54168;DHT22;68429;50.958;3.592;2023-08-31T10:08:15;19.50;99.90
54168;DHT22;68429;50.958;3.592;2023-08-31T10:10:41;19.30;99.90
54168;DHT22;68429;50.958;3.592;2023-08-31T10:13:07;19.00;99.90
54168;DHT22;68429;50.958;3.592;2023-08-31T10:15:35;19.20;99.90
54168;DHT22;68429;50.958;3.592;2023-08-31T10:18:04;19.60;99.90
54168;DHT22;68429;50.958;3.592;2023-08-31T10:20:31;19.60;99.90
54168;DHT22;68429;50.958;3.592;2023-08-31T10:22:59;19.70;99.90
54168;DHT22;68429;50.958;3.592;2023-08-31T10:25:25;19.80;99.90
54168;DHT22;68429;50.958;3.592;2023-08-31T10:27:52;20.00;99.90
54168;DHT22;68429;50.958;3.592;2023-08-31T10:30:27;20.00;99.90
54168;DHT22;68429;50.958;3.592;2023-08-31T10:35:55;20.70;99.90
54168;DHT22;68429;50.958;3.592;2023-08-31T10:38:32;20.70;99.90
54168;DHT22;68429;50.958;3.592;2023-08-31T10:46:16;21.40;99.90
54168;DHT22;68429;50.958;3.592;2023-08-31T10:49:01;21.20;99.90
54168;DHT22;68429;50.958;3.592;2023-08-31T10:51:40;22.30;99.90
54168;DHT22;68429;50.958;3.592;2023-08-31T10:54:10;22.40;99.90
54168;DHT22;68429;50.958;3.592;2023-08-31T10:59:50;23.40;98.90
54168;DHT22;68429;50.958;3.592;2023-08-31T11:02:41;23.60;97.70
54168;DHT22;68429;50.958;3.592;2023-08-31T11:05:15;22.80;96.70
54168;DHT22;68429;50.958;3.592;2023-08-31T11:07:48;22.00;98.30
54168;DHT22;68429;50.958;3.592;2023-08-31T11:10:19;21.80;99.10
54168;DHT22;68429;50.958;3.592;2023-08-31T11:12:53;21.70;99.50
54168;DHT22;68429;50.958;3.592;2023-08-31T11:15:20;21.20;99.90
54168;DHT22;68429;50.958;3.592;2023-08-31T11:17:49;21.30;99.90
54168;DHT22;68429;50.958;3.592;2023-08-31T11:20:17;21.70;99.90
54168;DHT22;68429;50.958;3.592;2023-08-31T11:22:46;21.80;99.60
54168;DHT22;68429;50.958;3.592;2023-08-31T11:25:13;22.00;99.90
54168;DHT22;68429;50.958;3.592;2023-08-31T11:27:39;21.60;99.90
54168;DHT22;68429;50.958;3.592;2023-08-31T11:30:29;21.20;99.90
54168;DHT22;68429;50.958;3.592;2023-08-31T11:33:00;20.50;99.90
54168;DHT22;68429;50.958;3.592;2023-08-31T11:35:35;19.90;99.90
54168;DHT22;68429;50.958;3.592;2023-08-31T11:38:01;19.90;99.90
54168;DHT22;68429;50.958;3.592;2023-08-31T11:40:28;19.90;99.90
54168;DHT22;68429;50.958;3.592;2023-08-31T11:42:54;20.10;99.90
54168;DHT22;68429;50.958;3.592;2023-08-31T11:45:20;20.20;99.90
54168;DHT22;68429;50.958;3.592;2023-08-31T11:47:48;19.90;99.90
54168;DHT22;68429;50.958;3.592;2023-08-31T11:50:14;19.70;99.90
54168;DHT22;68429;50.958;3.592;2023-08-31T11:52:42;19.40;99.90
54168;DHT22;68429;50.958;3.592;2023-08-31T11:55:12;19.50;99.90
54168;DHT22;68429;50.958;3.592;2023-08-31T11:57:38;19.60;99.90
54168;DHT22;68429;50.958;3.592;2023-08-31T12:00:04;20.00;99.90
54168;DHT22;68429;50.958;3.592;2023-08-31T12:02:40;20.20;99.90
54168;DHT22;68429;50.958;3.592;2023-08-31T12:05:06;20.30;99.90
54168;DHT22;68429;50.958;3.592;2023-08-31T12:07:32;20.20;99.90
54168;DHT22;68429;50.958;3.592;2023-08-31T12:10:04;19.90;99.90
54168;DHT22;68429;50.958;3.592;2023-08-31T12:12:30;19.80;99.90
54168;DHT22;68429;50.958;3.592;2023-08-31T12:14:58;20.00;99.90
54168;DHT22;68429;50.958;3.592;2023-08-31T12:17:29;20.40;99.90
54168;DHT22;68429;50.958;3.592;2023-08-31T12:20:02;20.00;99.90
54168;DHT22;68429;50.958;3.592;2023-08-31T12:22:31;19.70;99.90
54168;DHT22;68429;50.958;3.592;2023-08-31T12:24:57;19.80;99.90
54168;DHT22;68429;50.958;3.592;2023-08-31T12:27:23;20.10;99.90
54168;DHT22;68429;50.958;3.592;2023-08-31T12:29:48;19.90;99.90
54168;DHT22;68429;50.958;3.592;2023-08-31T12:32:15;19.70;99.90
54168;DHT22;68429;50.958;3.592;2023-08-31T12:34:42;19.60;99.90
54168;DHT22;68429;50.958;3.592;2023-08-31T12:37:08;19.70;99.90
54168;DHT22;68429;50.958;3.592;2023-08-31T12:39:33;19.80;99.90
54168;DHT22;68429;50.958;3.592;2023-08-31T12:41:59;19.70;99.90
54168;DHT22;68429;50.958;3.592;2023-08-31T12:44:25;19.70;99.90
54168;DHT22;68429;50.958;3.592;2023-08-31T12:46:51;19.80;99.90
54168;DHT22;68429;50.958;3.592;2023-08-31T12:49:17;20.00;99.90
54168;DHT22;68429;50.958;3.592;2023-08-31T12:51:45;20.10;99.90
54168;DHT22;68429;50.958;3.592;2023-08-31T12:54:11;20.40;99.90
54168;DHT22;68429;50.958;3.592;2023-08-31T12:56:37;20.40;99.90
54168;DHT22;68429;50.958;3.592;2023-08-31T12:59:03;20.60;99.90
54168;DHT22;68429;50.958;3.592;2023-08-31T13:01:31;20.80;99.90
54168;DHT22;68429;50.958;3.592;2023-08-31T13:03:58;20.90;99.90
54168;DHT22;68429;50.958;3.592;2023-08-31T13:06:24;21.10;99.90
54168;DHT22;68429;50.958;3.592;2023-08-31T13:08:50;21.20;99.90
54168;DHT22;68429;50.958;3.592;2023-08-31T13:11:16;21.20;99.90
54168;DHT22;68429;50.958;3.592;2023-08-31T13:13:44;21.50;99.90
54168;DHT22;68429;50.958;3.592;2023-08-31T13:16:10;22.10;99.90
54168;DHT22;68429;50.958;3.592;2023-08-31T13:18:35;21.70;99.90
54168;DHT22;68429;50.958;3.592;2023-08-31T13:21:01;21.40;99.90
54168;DHT22;68429;50.958;3.592;2023-08-31T13:23:28;21.60;99.90
54168;DHT22;68429;50.958;3.592;2023-08-31T13:25:54;21.40;99.90
54168;DHT22;68429;50.958;3.592;2023-08-31T13:28:21;21.10;99.90
54168;DHT22;68429;50.958;3.592;2023-08-31T13:30:47;20.70;99.90
54168;DHT22;68429;50.958;3.592;2023-08-31T13:33:13;20.70;99.90
54168;DHT22;68429;50.958;3.592;2023-08-31T13:35:38;20.70;99.90
54168;DHT22;68429;50.958;3.592;2023-08-31T13:38:04;20.40;99.90
54168;DHT22;68429;50.958;3.592;2023-08-31T13:40:30;20.20;99.90
54168;DHT22;68429;50.958;3.592;2023-08-31T13:42:59;20.10;99.90
54168;DHT22;68429;50.958;3.592;2023-08-31T13:45:31;20.40;99.90
54168;DHT22;68429;50.958;3.592;2023-08-31T13:48:00;20.70;99.90
54168;DHT22;68429;50.958;3.592;2023-08-31T13:50:27;20.80;99.90
54168;DHT22;68429;50.958;3.592;2023-08-31T13:52:53;20.70;99.90
54168;DHT22;68429;50.958;3.592;2023-08-31T13:55:19;20.70;99.90
54168;DHT22;68429;50.958;3.592;2023-08-31T13:57:45;20.30;99.90
54168;DHT22;68429;50.958;3.592;2023-08-31T14:00:11;20.00;99.90
54168;DHT22;68429;50.958;3.592;2023-08-31T14:02:37;20.10;99.90
54168;DHT22;68429;50.958;3.592;2023-08-31T14:05:06;20.20;99.90
54168;DHT22;68429;50.958;3.592;2023-08-31T14:07:34;20.00;99.90
54168;DHT22;68429;50.958;3.592;2023-08-31T14:10:00;20.10;99.90
54168;DHT22;68429;50.958;3.592;2023-08-31T14:12:25;19.90;99.90
54168;DHT22;68429;50.958;3.592;2023-08-31T14:14:51;19.70;99.90
54168;DHT22;68429;50.958;3.592;2023-08-31T14:17:18;19.80;99.90
54168;DHT22;68429;50.958;3.592;2023-08-31T14:19:44;19.70;99.90
54168;DHT22;68429;50.958;3.592;2023-08-31T14:22:10;19.80;99.90
54168;DHT22;68429;50.958;3.592;2023-08-31T14:24:36;19.60;99.90
54168;DHT22;68429;50.958;3.592;2023-08-31T14:27:03;19.60;99.90
54168;DHT22;68429;50.958;3.592;2023-08-31T14:29:28;19.50;99.90
54168;DHT22;68429;50.958;3.592;2023-08-31T14:31:54;19.30;99.90
54168;DHT22;68429;50.958;3.592;2023-08-31T14:34:21;19.40;99.90
54168;DHT22;68429;50.958;3.592;2023-08-31T14:36:47;19.30;99.90
54168;DHT22;68429;50.958;3.592;2023-08-31T14:39:12;19.30;99.90
54168;DHT22;68429;50.958;3.592;2023-08-31T14:41:38;19.10;99.90
54168;DHT22;68429;50.958;3.592;2023-08-31T14:44:04;19.20;99.90
54168;DHT22;68429;50.958;3.592;2023-08-31T14:46:29;19.20;99.90
54168;DHT22;68429;50.958;3.592;2023-08-31T14:48:55;19.10;99.90
54168;DHT22;68429;50.958;3.592;2023-08-31T14:51:21;19.00;99.90
54168;DHT22;68429;50.958;3.592;2023-08-31T14:53:46;19.00;99.90
54168;DHT22;68429;50.958;3.592;2023-08-31T14:56:12;18.90;99.90
54168;DHT22;68429;50.958;3.592;2023-08-31T14:58:37;18.90;99.90
54168;DHT22;68429;50.958;3.592;2023-08-31T15:01:03;18.90;99.90
54168;DHT22;68429;50.958;3.592;2023-08-31T15:03:29;19.00;99.90
54168;DHT22;68429;50.958;3.592;2023-08-31T15:05:55;19.00;99.90
54168;DHT22;68429;50.958;3.592;2023-08-31T15:08:22;19.00;99.90
54168;DHT22;68429;50.958;3.592;2023-08-31T15:11:00;18.80;99.90
54168;DHT22;68429;50.958;3.592;2023-08-31T15:13:27;18.70;99.90
54168;DHT22;68429;50.958;3.592;2023-08-31T15:15:53;18.70;99.90
54168;DHT22;68429;50.958;3.592;2023-08-31T15:18:18;18.70;99.90
54168;DHT22;68429;50.958;3.592;2023-08-31T15:20:44;18.60;99.90
54168;DHT22;68429;50.958;3.592;2023-08-31T15:23:10;18.50;99.90
54168;DHT22;68429;50.958;3.592;2023-08-31T15:25:35;18.50;99.90
54168;DHT22;68429;50.958;3.592;2023-08-31T15:28:01;18.40;99.90
54168;DHT22;68429;50.958;3.592;2023-08-31T15:30:28;18.40;99.90
54168;DHT22;68429;50.958;3.592;2023-08-31T15:32:54;18.40;99.90
54168;DHT22;68429;50.958;3.592;2023-08-31T15:35:22;18.30;99.90
54168;DHT22;68429;50.958;3.592;2023-08-31T15:37:48;18.30;99.90
54168;DHT22;68429;50.958;3.592;2023-08-31T15:40:16;18.30;99.90
54168;DHT22;68429;50.958;3.592;2023-08-31T15:42:42;18.20;99.90
54168;DHT22;68429;50.958;3.592;2023-08-31T15:45:08;18.10;99.90
54168;DHT22;68429;50.958;3.592;2023-08-31T15:47:33;18.20;99.90
54168;DHT22;68429;50.958;3.592;2023-08-31T15:49:59;18.10;99.90
54168;DHT22;68429;50.958;3.592;2023-08-31T15:52:25;18.10;99.90
54168;DHT22;68429;50.958;3.592;2023-08-31T15:54:50;17.90;99.90